createdAt,value
2019-03-24T00:01:40.986Z,56.53
2019-03-24T00:04:05.015Z,55.33
2019-03-24T00:06:33.306Z,57.07
2019-03-24T00:09:01.566Z,55.73
2019-03-24T00:11:29.934Z,55.90
2019-03-24T00:13:58.220Z,54.73
2019-03-24T00:16:26.561Z,56.60
2019-03-24T00:18:54.943Z,56.93
2019-03-24T00:21:23.310Z,56.53
2019-03-24T00:23:51.636Z,53.77
2019-03-24T00:26:19.916Z,51.43
2019-03-24T00:28:48.236Z,55.57
2019-03-24T00:31:16.565Z,54.13
2019-03-24T00:33:44.850Z,52.83
2019-03-24T00:36:13.120Z,54.53
2019-03-24T00:38:41.416Z,54.60
2019-03-24T00:41:09.690Z,55.07
2019-03-24T00:43:37.993Z,52.63
2019-03-24T00:46:06.262Z,52.67
2019-03-24T00:48:34.574Z,52.20
2019-03-24T00:51:02.850Z,53.43
2019-03-24T00:53:31.185Z,51.20
2019-03-24T00:55:59.459Z,50.97
2019-03-24T00:58:27.750Z,51.97
2019-03-24T01:00:56.022Z,51.07
2019-03-24T01:03:24.324Z,52.30
2019-03-24T01:05:52.692Z,53.10
2019-03-24T01:08:21.079Z,53.10
2019-03-24T01:10:49.453Z,51.53
2019-03-24T01:13:18.045Z,49.93
2019-03-24T01:15:48.091Z,47.80
2019-03-24T01:18:16.578Z,48.47
2019-03-24T01:20:44.901Z,48.10
2019-03-24T01:23:13.182Z,45.03
2019-03-24T01:25:41.470Z,42.03
2019-03-24T01:28:09.801Z,37.90
2019-03-24T01:30:38.070Z,33.57
2019-03-24T01:33:06.361Z,36.30
2019-03-24T01:35:34.790Z,32.67
2019-03-24T01:38:03.055Z,33.30
2019-03-24T01:40:31.373Z,30.03
2019-03-24T01:42:59.626Z,27.10
2019-03-24T01:45:28.013Z,23.83
2019-03-24T01:47:56.338Z,21.77
2019-03-24T01:50:24.635Z,20.87
2019-03-24T01:52:52.964Z,20.33
2019-03-24T01:55:21.283Z,18.83
2019-03-24T01:57:49.613Z,19.13
2019-03-24T02:00:17.890Z,17.70
2019-03-24T02:02:46.175Z,18.40
2019-03-24T02:05:14.464Z,17.93
2019-03-24T02:07:42.775Z,15.70
2019-03-24T02:10:11.166Z,14.87
2019-03-24T02:12:39.420Z,15.70
2019-03-24T02:15:08.347Z,15.40
2019-03-24T02:17:36.618Z,15.90
2019-03-24T02:20:05.694Z,14.30
2019-03-24T02:22:34.015Z,14.43
2019-03-24T02:25:02.305Z,14.17
2019-03-24T02:27:30.562Z,15.03
2019-03-24T02:29:58.820Z,15.60
2019-03-24T02:32:27.118Z,17.53
2019-03-24T02:34:55.374Z,15.90
2019-03-24T02:37:23.699Z,16.47
2019-03-24T02:39:51.951Z,15.97
2019-03-24T02:42:20.284Z,15.10
2019-03-24T02:44:48.608Z,16.10
2019-03-24T02:47:17.000Z,16.63
2019-03-24T02:49:45.269Z,15.63
2019-03-24T02:52:13.546Z,15.97
2019-03-24T02:54:41.808Z,16.73
2019-03-24T02:57:10.160Z,17.00
2019-03-24T02:59:38.495Z,16.77
2019-03-24T03:02:06.779Z,16.33
2019-03-24T03:04:35.162Z,16.43
2019-03-24T03:07:03.613Z,16.70
2019-03-24T03:09:31.930Z,16.07
2019-03-24T03:12:00.285Z,17.43
2019-03-24T03:14:28.564Z,15.63
2019-03-24T03:16:56.924Z,16.37
2019-03-24T03:19:25.247Z,16.17
2019-03-24T03:21:53.535Z,15.27
2019-03-24T03:24:21.795Z,16.50
2019-03-24T03:26:50.169Z,16.20
2019-03-24T03:29:18.497Z,16.27
2019-03-24T03:31:46.757Z,16.80
2019-03-24T03:34:15.166Z,15.73
2019-03-24T03:36:43.431Z,15.73
2019-03-24T03:39:11.742Z,16.20
2019-03-24T03:41:40.082Z,17.30
2019-03-24T03:44:08.496Z,16.90
2019-03-24T03:46:36.764Z,15.80
2019-03-24T03:49:05.109Z,15.07
2019-03-24T03:51:33.411Z,15.83
2019-03-24T03:54:01.691Z,15.90
2019-03-24T03:56:29.974Z,15.97
2019-03-24T03:58:58.271Z,16.53
2019-03-24T04:01:26.599Z,16.70
2019-03-24T04:03:54.879Z,15.33
2019-03-24T04:06:23.243Z,17.23
2019-03-24T04:08:51.610Z,16.47
2019-03-24T04:11:19.974Z,15.57
2019-03-24T04:13:48.316Z,16.13
2019-03-24T04:16:16.641Z,14.73
2019-03-24T04:18:44.965Z,15.90
2019-03-24T04:21:13.306Z,15.37
2019-03-24T04:23:41.565Z,15.93
2019-03-24T04:26:09.869Z,15.53
2019-03-24T04:28:38.162Z,15.83
2019-03-24T04:31:06.474Z,15.93
2019-03-24T04:33:34.736Z,15.27
2019-03-24T04:36:03.026Z,15.87
2019-03-24T04:38:31.355Z,16.17
2019-03-24T04:40:59.627Z,16.40
2019-03-24T04:43:27.946Z,16.43
2019-03-24T04:45:56.301Z,14.97
2019-03-24T04:48:24.555Z,14.23
2019-03-24T04:50:52.853Z,15.10
2019-03-24T04:53:21.100Z,15.23
2019-03-24T04:55:49.439Z,16.00
2019-03-24T04:58:17.694Z,15.20
2019-03-24T05:00:45.978Z,15.33
2019-03-24T05:03:14.284Z,14.87
2019-03-24T05:05:42.566Z,14.50
2019-03-24T05:08:10.854Z,16.10
2019-03-24T05:10:39.179Z,14.70
2019-03-24T05:13:07.444Z,14.87
2019-03-24T05:15:35.741Z,13.77
2019-03-24T05:18:04.000Z,14.10
2019-03-24T05:20:32.322Z,15.23
2019-03-24T05:23:00.609Z,14.40
2019-03-24T05:25:28.884Z,14.60
2019-03-24T05:27:57.215Z,15.00
2019-03-24T05:30:25.679Z,16.03
2019-03-24T05:32:54.034Z,15.03
2019-03-24T05:35:22.312Z,14.77
2019-03-24T05:37:50.573Z,15.10
2019-03-24T05:40:18.864Z,16.43
2019-03-24T05:42:47.188Z,15.77
2019-03-24T05:45:15.479Z,15.67
2019-03-24T05:47:43.798Z,15.83
2019-03-24T05:50:12.110Z,15.60
2019-03-24T05:52:40.389Z,15.13
2019-03-24T05:55:08.709Z,16.83
2019-03-24T05:57:37.046Z,16.37
2019-03-24T06:00:07.111Z,15.63
2019-03-24T06:02:35.380Z,15.23
2019-03-24T06:05:03.905Z,15.50
2019-03-24T06:07:32.228Z,16.33
2019-03-24T06:10:00.563Z,16.20
2019-03-24T06:12:29.035Z,15.60
2019-03-24T06:14:57.331Z,15.63
2019-03-24T06:17:25.621Z,17.77
2019-03-24T06:19:53.979Z,19.60
2019-03-24T06:22:22.245Z,19.23
2019-03-24T06:24:50.583Z,18.90
2019-03-24T06:27:18.868Z,15.90
2019-03-24T06:29:47.165Z,14.57
2019-03-24T06:32:15.470Z,15.17
2019-03-24T06:34:43.831Z,16.47
2019-03-24T06:37:12.092Z,15.50
2019-03-24T06:39:40.379Z,15.27
2019-03-24T06:42:08.660Z,16.20
2019-03-24T06:44:36.948Z,15.30
2019-03-24T06:47:05.946Z,13.93
2019-03-24T06:49:34.352Z,14.37
2019-03-24T06:52:02.791Z,13.90
2019-03-24T06:54:31.133Z,14.13
2019-03-24T06:56:59.513Z,14.20
2019-03-24T06:59:27.809Z,12.90
2019-03-24T07:01:56.216Z,12.90
2019-03-24T07:04:24.469Z,12.90
2019-03-24T07:06:52.858Z,11.93
2019-03-24T07:09:21.110Z,12.10
2019-03-24T07:11:49.393Z,12.43
2019-03-24T07:14:17.679Z,11.67
2019-03-24T07:16:46.036Z,11.80
2019-03-24T07:19:14.326Z,11.67
2019-03-24T07:21:42.625Z,12.30
2019-03-24T07:24:10.908Z,11.53
2019-03-24T07:26:39.288Z,11.30
2019-03-24T07:29:07.672Z,12.33
2019-03-24T07:31:36.035Z,11.57
2019-03-24T07:34:04.525Z,11.27
2019-03-24T07:36:32.814Z,11.60
2019-03-24T07:39:01.074Z,11.57
2019-03-24T07:41:29.369Z,10.87
2019-03-24T07:43:57.718Z,11.13
2019-03-24T07:46:26.000Z,10.93
2019-03-24T07:48:54.326Z,12.17
2019-03-24T07:51:22.608Z,11.73
2019-03-24T07:53:51.009Z,12.20
2019-03-24T07:56:19.340Z,12.37
2019-03-24T07:58:47.699Z,12.30
2019-03-24T08:01:16.068Z,12.27
2019-03-24T08:03:44.375Z,11.20
2019-03-24T08:06:12.755Z,11.47
2019-03-24T08:08:44.392Z,11.33
2019-03-24T08:11:10.988Z,12.03
2019-03-24T08:13:39.270Z,11.57
2019-03-24T08:16:07.662Z,11.47
2019-03-24T08:18:36.000Z,10.67
2019-03-24T08:21:04.284Z,11.23
2019-03-24T08:23:32.585Z,10.60
2019-03-24T08:26:00.931Z,11.10
2019-03-24T08:28:29.305Z,10.30
2019-03-24T08:30:57.615Z,9.87
2019-03-24T08:33:25.943Z,11.30
2019-03-24T08:35:54.361Z,10.53
2019-03-24T08:38:22.716Z,9.63
2019-03-24T08:40:51.152Z,10.47
2019-03-24T08:43:19.445Z,10.90
2019-03-24T08:45:47.763Z,10.00
2019-03-24T08:48:16.043Z,9.77
2019-03-24T08:50:44.353Z,10.67
2019-03-24T08:53:12.636Z,11.20
2019-03-24T08:55:41.010Z,10.33
2019-03-24T08:58:09.331Z,10.27
2019-03-24T09:00:37.740Z,10.60
2019-03-24T09:03:06.049Z,9.60
2019-03-24T09:05:34.335Z,9.27
2019-03-24T09:08:02.640Z,11.03
2019-03-24T09:10:31.033Z,10.17
2019-03-24T09:12:59.323Z,10.03
2019-03-24T09:15:27.622Z,9.47
2019-03-24T09:17:55.910Z,10.13
2019-03-24T09:20:24.229Z,9.43
2019-03-24T09:22:52.560Z,9.37
2019-03-24T09:25:20.892Z,9.07
2019-03-24T09:27:49.305Z,8.73
2019-03-24T09:30:29.548Z,9.57
2019-03-24T09:32:57.861Z,8.90
2019-03-24T09:35:26.194Z,9.07
2019-03-24T09:37:54.606Z,10.10
2019-03-24T09:40:33.982Z,9.10
2019-03-24T09:43:02.333Z,9.33
2019-03-24T09:45:31.128Z,8.40
2019-03-24T09:48:00.059Z,7.50
2019-03-24T09:50:28.512Z,7.30
2019-03-24T09:52:57.058Z,8.07
2019-03-24T09:55:25.393Z,7.77
2019-03-24T09:57:53.711Z,7.83
2019-03-24T10:00:21.964Z,7.90
2019-03-24T10:02:50.315Z,7.53
2019-03-24T10:05:18.609Z,7.23
2019-03-24T10:07:46.970Z,6.40
2019-03-24T10:10:15.299Z,6.77
2019-03-24T10:12:43.653Z,7.07
2019-03-24T10:15:11.939Z,6.77
2019-03-24T10:17:40.234Z,7.40
2019-03-24T10:20:08.769Z,8.87
2019-03-24T10:22:37.108Z,7.83
2019-03-24T10:25:06.705Z,10.33
2019-03-24T10:27:34.999Z,11.50
2019-03-24T10:30:04.685Z,13.40
2019-03-24T10:32:33.028Z,12.50
2019-03-24T10:35:01.335Z,13.80
2019-03-24T10:37:29.679Z,13.47
2019-03-24T10:39:57.980Z,12.93
2019-03-24T10:42:26.273Z,13.60
2019-03-24T10:44:54.635Z,13.93
2019-03-24T10:47:22.985Z,15.30
2019-03-24T10:49:51.336Z,14.50
2019-03-24T10:52:19.616Z,15.03
2019-03-24T10:54:47.911Z,13.07
2019-03-24T10:57:16.249Z,13.77
2019-03-24T10:59:44.538Z,13.77
2019-03-24T11:02:12.954Z,12.87
2019-03-24T11:04:41.334Z,11.43
2019-03-24T11:07:09.638Z,12.10
2019-03-24T11:09:38.014Z,11.47
2019-03-24T11:12:06.318Z,11.20
2019-03-24T11:14:34.758Z,10.80
2019-03-24T11:17:03.049Z,10.93
2019-03-24T11:19:35.616Z,11.40
2019-03-24T11:22:01.450Z,10.83
2019-03-24T11:24:29.720Z,12.43
2019-03-24T11:26:58.055Z,11.17
2019-03-24T11:29:26.441Z,10.17
2019-03-24T11:31:54.765Z,10.37
2019-03-24T11:34:23.132Z,10.47
2019-03-24T11:36:51.399Z,9.90
2019-03-24T11:39:19.718Z,8.77
2019-03-24T11:41:48.023Z,7.83
2019-03-24T11:44:16.385Z,7.80
2019-03-24T11:46:44.783Z,8.70
2019-03-24T11:49:19.580Z,9.40
2019-03-24T11:51:48.086Z,8.10
2019-03-24T11:54:16.416Z,8.57
2019-03-24T11:56:44.723Z,8.30
2019-03-24T11:59:13.067Z,7.53
2019-03-24T12:01:41.363Z,7.40
2019-03-24T12:04:09.645Z,6.97
2019-03-24T12:06:38.010Z,6.92
2019-03-24T12:09:07.004Z,7.50
2019-03-24T12:11:35.380Z,7.17
2019-03-24T12:14:04.618Z,6.90
2019-03-24T12:16:33.185Z,6.55
2019-03-24T12:19:01.450Z,6.87
2019-03-24T12:21:29.757Z,6.62
2019-03-24T12:23:58.008Z,5.87
2019-03-24T12:26:26.343Z,6.37
2019-03-24T12:28:54.634Z,5.40
2019-03-24T12:31:22.927Z,5.00
2019-03-24T12:33:51.208Z,5.30
2019-03-24T12:36:19.569Z,5.50
2019-03-24T12:38:47.821Z,5.50
2019-03-24T12:41:16.160Z,5.03
2019-03-24T12:43:44.430Z,6.20
2019-03-24T12:46:12.793Z,4.93
2019-03-24T12:48:41.104Z,5.37
2019-03-24T12:51:09.375Z,5.67
2019-03-24T12:53:37.665Z,5.90
2019-03-24T12:56:05.939Z,6.50
2019-03-24T12:58:34.228Z,6.53
2019-03-24T13:01:02.490Z,6.50
2019-03-24T13:03:30.813Z,6.20
2019-03-24T13:05:59.149Z,5.87
2019-03-24T13:08:27.530Z,5.70
2019-03-24T13:10:55.778Z,5.90
2019-03-24T13:13:24.076Z,5.80
2019-03-24T13:15:52.340Z,6.47
2019-03-24T13:18:20.638Z,6.13
2019-03-24T13:20:48.958Z,5.57
2019-03-24T13:23:17.291Z,6.10
2019-03-24T13:25:45.674Z,5.67
2019-03-24T13:28:14.045Z,5.60
2019-03-24T13:30:42.320Z,5.00
2019-03-24T13:33:10.665Z,5.03
2019-03-24T13:35:39.025Z,4.83
2019-03-24T13:38:07.272Z,4.80
2019-03-24T13:40:35.594Z,5.13
2019-03-24T13:43:03.909Z,4.67
2019-03-24T13:45:32.237Z,4.70
2019-03-24T13:48:00.499Z,5.17
2019-03-24T13:50:31.613Z,4.37
2019-03-24T13:52:58.850Z,5.30
2019-03-24T13:55:27.139Z,5.43
2019-03-24T13:57:55.553Z,5.37
2019-03-24T14:00:23.857Z,4.90
2019-03-24T14:02:52.126Z,5.07
2019-03-24T14:05:20.423Z,5.20
2019-03-24T14:07:48.778Z,5.07
2019-03-24T14:10:17.154Z,4.90
2019-03-24T14:12:45.489Z,5.57
2019-03-24T14:15:13.868Z,5.30
2019-03-24T14:17:42.203Z,5.13
2019-03-24T14:20:10.604Z,5.80
2019-03-24T14:22:38.931Z,4.90
2019-03-24T14:25:07.278Z,5.80
2019-03-24T14:27:35.566Z,6.03
2019-03-24T14:30:05.475Z,5.57
2019-03-24T14:32:33.759Z,5.53
2019-03-24T14:35:02.060Z,5.03
2019-03-24T14:37:30.326Z,5.80
2019-03-24T14:39:58.604Z,5.20
2019-03-24T14:42:26.969Z,5.20
2019-03-24T14:44:55.247Z,5.77
2019-03-24T14:47:23.544Z,5.47
2019-03-24T14:49:51.839Z,4.87
2019-03-24T14:52:20.119Z,4.87
2019-03-24T14:54:48.400Z,4.23
2019-03-24T14:57:16.678Z,4.47
2019-03-24T14:59:44.953Z,4.40
2019-03-24T15:02:13.344Z,4.23
2019-03-24T15:04:41.639Z,4.30
2019-03-24T15:07:09.953Z,4.63
2019-03-24T15:09:38.280Z,4.00
2019-03-24T15:12:06.586Z,4.13
2019-03-24T15:14:34.844Z,3.63
2019-03-24T15:17:03.141Z,4.03
2019-03-24T15:19:31.410Z,3.75
2019-03-24T15:21:59.715Z,3.52
2019-03-24T15:24:28.009Z,3.20
2019-03-24T15:26:56.383Z,3.83
2019-03-24T15:29:24.683Z,3.30
2019-03-24T15:31:52.973Z,3.85
2019-03-24T15:34:21.252Z,3.87
2019-03-24T15:36:49.590Z,3.12
2019-03-24T15:39:17.940Z,3.67
2019-03-24T15:41:46.218Z,3.80
2019-03-24T15:44:14.532Z,3.70
2019-03-24T15:46:42.795Z,3.27
2019-03-24T15:49:11.102Z,3.17
2019-03-24T15:51:39.357Z,2.87
2019-03-24T15:54:07.647Z,2.80
2019-03-24T15:56:35.903Z,2.80
2019-03-24T15:59:04.229Z,2.77
2019-03-24T16:01:32.559Z,2.90
2019-03-24T16:04:00.841Z,2.80
2019-03-24T16:06:32.205Z,2.72
2019-03-24T16:09:00.527Z,2.77
2019-03-24T16:11:28.844Z,2.55
2019-03-24T16:13:57.178Z,2.47
2019-03-24T16:16:25.451Z,2.40
2019-03-24T16:18:53.807Z,2.45
2019-03-24T16:21:27.887Z,2.30
2019-03-24T16:23:52.178Z,2.30
2019-03-24T16:26:20.469Z,2.30
2019-03-24T16:28:48.766Z,2.60
2019-03-24T16:31:17.133Z,2.52
2019-03-24T16:33:45.398Z,2.33
2019-03-24T16:36:13.720Z,2.30
2019-03-24T16:38:48.966Z,2.00
2019-03-24T16:41:12.054Z,2.10
2019-03-24T16:43:40.344Z,2.03
2019-03-24T16:46:08.714Z,2.07
2019-03-24T16:48:37.216Z,1.90
2019-03-24T16:51:06.217Z,1.90
2019-03-24T16:53:34.602Z,1.80
2019-03-24T16:56:03.017Z,1.73
2019-03-24T16:58:31.287Z,1.87
2019-03-24T17:00:59.654Z,2.07
2019-03-24T17:03:27.947Z,2.20
2019-03-24T17:05:56.275Z,1.80
2019-03-24T17:08:24.614Z,1.87
2019-03-24T17:10:52.993Z,1.60
2019-03-24T17:13:21.272Z,1.60
2019-03-24T17:15:49.577Z,2.00
2019-03-24T17:18:17.879Z,1.93
2019-03-24T17:20:46.243Z,1.77
2019-03-24T17:23:14.602Z,2.00
2019-03-24T17:25:42.927Z,1.70
2019-03-24T17:28:11.231Z,1.90
2019-03-24T17:30:39.672Z,1.83
2019-03-24T17:33:07.979Z,1.70
2019-03-24T17:35:36.404Z,1.83
2019-03-24T17:38:04.867Z,1.70
2019-03-24T17:40:38.787Z,1.60
2019-03-24T17:43:03.230Z,2.07
2019-03-24T17:45:31.481Z,1.77
2019-03-24T17:47:59.805Z,2.10
2019-03-24T17:50:28.144Z,1.70
2019-03-24T17:52:56.520Z,2.10
2019-03-24T17:55:27.796Z,1.70
2019-03-24T17:57:54.807Z,1.70
2019-03-24T18:00:26.415Z,1.70
2019-03-24T18:02:54.775Z,1.83
2019-03-24T18:05:23.058Z,1.87
2019-03-24T18:07:51.344Z,1.97
2019-03-24T18:10:19.602Z,1.57
2019-03-24T18:12:47.902Z,1.70
2019-03-24T18:15:16.149Z,2.20
2019-03-24T18:17:44.462Z,1.80
2019-03-24T18:20:15.972Z,1.90
2019-03-24T18:22:44.353Z,1.60
2019-03-24T18:25:12.706Z,2.50
2019-03-24T18:27:40.993Z,2.20
2019-03-24T18:30:10.931Z,1.97
2019-03-24T18:32:39.251Z,2.80
2019-03-24T18:35:08.929Z,2.20
2019-03-24T18:37:37.192Z,3.60
2019-03-24T18:40:07.768Z,4.33
2019-03-24T18:42:36.327Z,3.80
2019-03-24T18:45:09.641Z,3.80
2019-03-24T18:47:39.381Z,3.40
2019-03-24T18:50:10.826Z,3.00
2019-03-24T18:52:39.172Z,2.73
2019-03-24T18:55:08.284Z,2.33
2019-03-24T18:57:36.654Z,2.43
2019-03-24T19:00:09.394Z,2.10
2019-03-24T19:02:37.737Z,2.60
2019-03-24T19:05:06.839Z,1.83
2019-03-24T19:07:35.131Z,1.87
2019-03-24T19:10:05.696Z,2.20
2019-03-24T19:12:34.013Z,2.60
2019-03-24T19:15:02.372Z,2.20
2019-03-24T19:17:30.691Z,1.83
2019-03-24T19:19:59.077Z,2.30
2019-03-24T19:22:33.437Z,2.20
2019-03-24T19:24:57.320Z,2.47
2019-03-24T19:27:25.613Z,2.90
2019-03-24T19:29:53.928Z,2.97
2019-03-24T19:32:22.208Z,2.50
2019-03-24T19:34:50.472Z,2.50
2019-03-24T19:37:18.776Z,2.40
2019-03-24T19:39:47.033Z,2.57
2019-03-24T19:42:15.379Z,2.87
2019-03-24T19:44:43.639Z,3.27
2019-03-24T19:47:11.960Z,3.53
2019-03-24T19:49:40.233Z,4.57
2019-03-24T19:52:08.579Z,3.10
2019-03-24T19:54:36.964Z,3.00
2019-03-24T19:57:05.329Z,2.90
2019-03-24T19:59:33.661Z,3.30
2019-03-24T20:02:02.047Z,3.00
2019-03-24T20:04:30.334Z,3.13
2019-03-24T20:06:59.543Z,2.93
2019-03-24T20:09:27.788Z,3.10
2019-03-24T20:11:56.205Z,3.50
2019-03-24T20:14:24.517Z,3.27
2019-03-24T20:16:52.841Z,3.37
2019-03-24T20:19:21.174Z,3.20
2019-03-24T20:21:49.443Z,3.27
2019-03-24T20:24:17.730Z,4.00
2019-03-24T20:26:46.009Z,3.60
2019-03-24T20:29:14.292Z,3.43
2019-03-24T20:31:42.537Z,3.40
2019-03-24T20:34:10.849Z,3.40
2019-03-24T20:36:39.103Z,3.70
2019-03-24T20:39:09.038Z,3.77
2019-03-24T20:41:37.389Z,3.90
2019-03-24T20:44:05.673Z,3.80
2019-03-24T20:46:34.017Z,3.40
2019-03-24T20:49:02.321Z,4.00
2019-03-24T20:51:30.593Z,3.80
2019-03-24T20:53:59.022Z,3.70
2019-03-24T20:56:27.343Z,3.20
2019-03-24T20:58:55.680Z,3.20
2019-03-24T21:01:23.928Z,4.03
2019-03-24T21:03:52.212Z,3.73
2019-03-24T21:06:20.499Z,3.00
2019-03-24T21:08:48.861Z,3.40
2019-03-24T21:11:17.136Z,3.10
2019-03-24T21:13:45.425Z,3.33
2019-03-24T21:16:13.778Z,3.43
2019-03-24T21:18:42.137Z,3.80
2019-03-24T21:21:10.432Z,3.40
2019-03-24T21:23:38.823Z,3.73
2019-03-24T21:26:07.129Z,4.37
2019-03-24T21:28:35.420Z,3.77
2019-03-24T21:31:03.836Z,4.33
2019-03-24T21:33:32.177Z,4.17
2019-03-24T21:36:00.464Z,5.33
2019-03-24T21:38:28.708Z,5.17
2019-03-24T21:40:56.993Z,5.93
2019-03-24T21:43:25.256Z,5.80
2019-03-24T21:45:53.608Z,5.37
2019-03-24T21:48:21.919Z,6.30
2019-03-24T21:50:50.187Z,6.47
2019-03-24T21:53:18.464Z,7.53
2019-03-24T21:55:46.852Z,5.93
2019-03-24T21:58:15.172Z,6.87
2019-03-24T22:00:43.471Z,8.43
2019-03-24T22:03:11.761Z,8.53
2019-03-24T22:05:40.047Z,10.60
2019-03-24T22:08:08.367Z,12.50
2019-03-24T22:10:36.629Z,9.70
2019-03-24T22:13:05.286Z,11.17
2019-03-24T22:15:33.574Z,9.53
2019-03-24T22:18:01.867Z,8.63
2019-03-24T22:20:30.126Z,8.10
2019-03-24T22:22:58.398Z,5.23
2019-03-24T22:25:26.698Z,5.37
2019-03-24T22:27:55.045Z,5.17
2019-03-24T22:30:23.291Z,5.17
2019-03-24T22:32:51.558Z,5.47
2019-03-24T22:35:19.840Z,5.33
2019-03-24T22:37:48.128Z,5.40
2019-03-24T22:40:16.388Z,5.63
2019-03-24T22:42:44.668Z,5.23
2019-03-24T22:45:13.110Z,5.20
2019-03-24T22:47:41.462Z,5.60
2019-03-24T22:50:09.767Z,6.13
2019-03-24T22:52:38.035Z,5.77
2019-03-24T22:55:09.416Z,5.43
2019-03-24T22:57:37.709Z,5.87
2019-03-24T23:00:08.570Z,5.47
2019-03-24T23:02:36.887Z,5.90
2019-03-24T23:05:05.250Z,5.50
2019-03-24T23:07:33.593Z,5.67
2019-03-24T23:10:01.884Z,5.33
2019-03-24T23:12:30.146Z,6.10
2019-03-24T23:14:58.486Z,6.20
2019-03-24T23:17:26.781Z,7.03
2019-03-24T23:19:55.087Z,6.97
2019-03-24T23:22:23.337Z,6.70
2019-03-24T23:24:51.662Z,6.87
2019-03-24T23:27:19.999Z,7.53
2019-03-24T23:29:48.297Z,7.43
2019-03-24T23:32:16.562Z,7.20
2019-03-24T23:34:44.860Z,6.90
2019-03-24T23:37:13.103Z,6.87
2019-03-24T23:39:41.393Z,6.33
2019-03-24T23:42:09.652Z,7.23
2019-03-24T23:44:37.917Z,5.73
2019-03-24T23:47:06.217Z,7.00
2019-03-24T23:49:34.636Z,5.70
2019-03-24T23:52:02.991Z,6.40
2019-03-24T23:54:31.245Z,6.17
2019-03-24T23:56:59.517Z,5.40
2019-03-24T23:59:27.781Z,5.27
